createdAt,value
2023-05-08T00:02:23.583Z,2.10
2023-05-08T00:04:51.636Z,2.43
2023-05-08T00:07:21.032Z,1.93
2023-05-08T00:09:49.164Z,2.53
2023-05-08T00:12:17.147Z,2.30
2023-05-08T00:14:45.159Z,2.30
2023-05-08T00:17:13.612Z,2.40
2023-05-08T00:19:41.686Z,2.50
2023-05-08T00:22:09.675Z,2.47
2023-05-08T00:24:39.095Z,2.50
2023-05-08T00:27:08.133Z,2.20
2023-05-08T00:29:36.156Z,2.27
2023-05-08T00:32:04.450Z,2.27
2023-05-08T00:34:32.489Z,2.27
2023-05-08T00:37:00.541Z,2.20
2023-05-08T00:39:28.741Z,2.10
2023-05-08T00:41:58.057Z,2.37
2023-05-08T00:44:26.098Z,2.10
2023-05-08T00:46:54.157Z,2.00
2023-05-08T00:49:22.258Z,2.17
2023-05-08T00:51:53.170Z,2.23
2023-05-08T00:54:21.527Z,2.20
2023-05-08T00:56:51.862Z,2.23
2023-05-08T00:59:22.283Z,2.00
2023-05-08T01:01:51.597Z,2.30
2023-05-08T01:04:22.781Z,2.20
2023-05-08T01:06:50.975Z,2.30
2023-05-08T01:09:19.134Z,2.37
2023-05-08T01:11:51.828Z,2.03
2023-05-08T01:14:29.845Z,2.30
2023-05-08T01:17:07.485Z,2.33
2023-05-08T01:19:54.012Z,2.50
2023-05-08T01:22:39.987Z,2.83
2023-05-08T01:25:35.984Z,2.50
2023-05-08T01:28:26.276Z,2.30
2023-05-08T01:31:09.554Z,2.33
2023-05-08T01:33:46.865Z,2.07
2023-05-08T01:36:35.256Z,2.13
2023-05-08T01:39:14.968Z,2.03
2023-05-08T01:41:51.658Z,2.03
2023-05-08T01:44:23.713Z,2.40
2023-05-08T01:46:53.292Z,2.13
2023-05-08T01:49:27.824Z,2.40
2023-05-08T01:52:02.151Z,2.33
2023-05-08T01:54:35.477Z,2.43
2023-05-08T01:57:04.653Z,2.30
2023-05-08T01:59:36.532Z,2.40
2023-05-08T02:02:06.366Z,2.13
2023-05-08T02:04:36.820Z,2.10
2023-05-08T02:07:09.283Z,1.83
2023-05-08T02:09:40.163Z,2.20
2023-05-08T02:12:09.353Z,2.30
2023-05-08T02:14:38.507Z,2.27
2023-05-08T02:17:09.423Z,2.27
2023-05-08T02:19:42.335Z,2.30
2023-05-08T02:22:11.109Z,2.07
2023-05-08T02:24:39.807Z,2.50
2023-05-08T02:27:10.459Z,2.10
2023-05-08T02:29:39.052Z,2.47
2023-05-08T02:32:09.047Z,2.10
2023-05-08T02:34:45.083Z,2.03
2023-05-08T02:37:19.369Z,2.13
2023-05-08T02:39:49.269Z,2.27
2023-05-08T02:42:17.474Z,2.33
2023-05-08T02:44:45.547Z,2.20
2023-05-08T02:47:20.202Z,2.07
2023-05-08T02:49:53.183Z,2.10
2023-05-08T02:52:28.543Z,2.10
2023-05-08T02:55:01.590Z,1.97
2023-05-08T02:57:38.613Z,2.17
2023-05-08T03:00:13.705Z,2.00
2023-05-08T03:02:45.186Z,2.17
2023-05-08T03:05:20.739Z,2.50
2023-05-08T03:07:53.969Z,2.07
2023-05-08T03:10:26.170Z,1.90
2023-05-08T03:12:57.012Z,2.07
2023-05-08T03:15:28.331Z,2.30
2023-05-08T03:17:59.617Z,2.07
2023-05-08T03:20:33.764Z,2.20
2023-05-08T03:23:03.935Z,2.40
2023-05-08T03:25:35.124Z,2.20
2023-05-08T03:28:06.169Z,2.20
2023-05-08T03:30:38.429Z,1.83
2023-05-08T03:33:10.288Z,1.77
2023-05-08T03:35:40.903Z,2.13
2023-05-08T03:38:10.666Z,1.90
2023-05-08T03:40:39.958Z,2.10
2023-05-08T03:43:08.666Z,1.97
2023-05-08T03:45:38.457Z,2.07
2023-05-08T03:48:07.944Z,2.30
2023-05-08T03:50:39.357Z,2.07
2023-05-08T03:53:10.488Z,1.93
2023-05-08T03:55:39.426Z,1.80
2023-05-08T03:58:19.022Z,1.87
2023-05-08T04:00:59.800Z,2.33
2023-05-08T04:03:39.521Z,1.60
2023-05-08T04:06:16.030Z,1.80
2023-05-08T04:08:53.103Z,1.80
2023-05-08T04:11:31.532Z,1.60
2023-05-08T04:14:05.206Z,1.60
2023-05-08T04:16:38.853Z,1.93
2023-05-08T04:19:13.909Z,1.80
2023-05-08T04:21:45.587Z,1.70
2023-05-08T04:24:16.188Z,1.87
2023-05-08T04:26:46.662Z,1.70
2023-05-08T04:29:16.406Z,1.70
2023-05-08T04:31:45.060Z,1.80
2023-05-08T04:34:13.786Z,1.80
2023-05-08T04:36:43.521Z,1.63
2023-05-08T04:39:11.648Z,1.50
2023-05-08T04:41:39.778Z,1.97
2023-05-08T04:44:08.090Z,2.30
2023-05-08T04:46:46.582Z,2.20
2023-05-08T04:49:14.676Z,2.10
2023-05-08T04:51:44.086Z,2.20
2023-05-08T04:54:12.377Z,1.90
2023-05-08T04:56:40.673Z,2.30
2023-05-08T04:59:08.750Z,2.10
2023-05-08T05:01:36.755Z,2.20
2023-05-08T05:04:05.099Z,2.07
2023-05-08T05:06:33.713Z,2.07
2023-05-08T18:08:36.224Z,2.13
2023-05-08T18:11:04.349Z,2.20
2023-05-08T18:13:33.032Z,2.30
2023-05-08T18:16:01.171Z,2.53
2023-05-08T18:18:29.214Z,2.30
2023-05-08T18:20:57.207Z,2.53
2023-05-08T18:23:25.321Z,2.27
2023-05-08T18:25:54.672Z,2.20
2023-05-08T18:28:22.648Z,3.23
2023-05-08T18:30:51.064Z,2.60
2023-05-08T18:33:19.100Z,2.40
2023-05-08T18:35:47.207Z,2.37
2023-05-08T18:38:17.563Z,2.53
2023-05-08T18:40:46.186Z,2.40
2023-05-08T18:43:15.488Z,2.30
2023-05-08T18:45:43.561Z,2.60
2023-05-08T18:48:11.708Z,2.37
2023-05-08T18:50:39.881Z,2.57
2023-05-08T18:53:09.730Z,2.57
2023-05-08T18:55:37.947Z,2.40
2023-05-08T18:58:06.471Z,2.57
2023-05-08T19:00:35.890Z,2.40
2023-05-08T19:03:04.056Z,2.37
2023-05-08T19:05:32.190Z,2.40
2023-05-08T19:08:01.508Z,2.57
2023-05-08T19:10:29.520Z,2.50
2023-05-08T19:12:57.828Z,2.40
2023-05-08T19:15:25.807Z,2.47
2023-05-08T19:17:55.229Z,2.50
2023-05-08T19:20:23.562Z,2.57
2023-05-08T19:22:51.556Z,2.70
2023-05-08T19:25:19.938Z,2.67
2023-05-08T19:27:47.946Z,2.43
2023-05-08T19:30:16.537Z,2.63
2023-05-08T19:32:44.685Z,2.80
2023-05-08T19:35:14.101Z,2.20
2023-05-08T19:37:42.083Z,2.50
2023-05-08T19:40:11.210Z,2.70
2023-05-08T19:42:39.434Z,2.30
2023-05-08T19:45:08.436Z,3.10
2023-05-08T19:47:36.505Z,2.60
2023-05-08T19:50:06.268Z,2.37
2023-05-08T19:52:35.961Z,2.53
2023-05-08T19:55:04.031Z,2.77
2023-05-08T19:59:17.904Z,2.73
2023-05-08T20:01:45.962Z,2.50
2023-05-08T20:04:14.012Z,2.70
2023-05-08T20:06:42.042Z,2.20
2023-05-08T20:09:10.142Z,2.43
2023-05-08T20:11:38.145Z,2.63
2023-05-08T20:14:06.151Z,2.60
2023-05-08T20:16:35.662Z,2.57
2023-05-08T20:19:03.668Z,3.00
2023-05-08T20:21:32.503Z,2.43
2023-05-08T20:24:00.555Z,2.53
2023-05-08T20:26:29.098Z,2.70
2023-05-08T20:28:57.581Z,2.53
2023-05-08T20:31:27.658Z,2.87
2023-05-08T20:33:57.612Z,2.70
2023-05-08T20:36:25.599Z,2.77
2023-05-08T20:38:53.735Z,2.60
2023-05-08T20:41:22.254Z,2.47
2023-05-08T20:43:50.243Z,2.70
2023-05-08T20:46:18.294Z,2.80
2023-05-08T20:48:46.299Z,2.87
2023-05-08T20:51:16.036Z,2.67
2023-05-08T20:53:44.074Z,2.70
2023-05-08T20:56:15.770Z,2.80
2023-05-08T20:58:46.090Z,2.60
2023-05-08T21:01:14.154Z,2.60
2023-05-08T21:03:42.181Z,2.70
2023-05-08T21:06:10.223Z,2.90
2023-05-08T21:08:39.768Z,2.60
2023-05-08T21:11:07.741Z,2.70
2023-05-08T21:13:35.771Z,2.50
2023-05-08T21:16:04.305Z,2.63
2023-05-08T21:18:32.368Z,2.70
2023-05-08T21:21:00.385Z,2.67
2023-05-08T21:23:30.996Z,2.80
2023-05-08T21:26:00.361Z,3.20
2023-05-08T21:28:28.324Z,2.83
2023-05-08T21:30:56.301Z,2.60
2023-05-08T21:33:24.301Z,2.60
2023-05-08T21:35:52.288Z,2.67
2023-05-08T21:38:20.272Z,3.00
2023-05-08T21:40:48.270Z,2.67
2023-05-08T21:43:17.591Z,2.83
2023-05-08T21:45:45.575Z,2.57
2023-05-08T21:48:13.594Z,2.97
2023-05-08T21:50:41.591Z,2.93
2023-05-08T21:53:09.559Z,2.90
2023-05-08T21:55:37.558Z,2.90
2023-05-08T21:58:05.617Z,3.20
2023-05-08T22:00:35.065Z,3.17
2023-05-08T22:03:03.201Z,3.27
2023-05-08T22:05:31.276Z,3.20
2023-05-08T22:07:59.285Z,3.30
2023-05-08T22:10:27.289Z,3.20
2023-05-08T22:12:55.367Z,3.00
2023-05-08T22:15:29.722Z,3.00
2023-05-08T22:18:00.667Z,2.93
2023-05-08T22:20:28.944Z,3.27
2023-05-08T22:22:57.016Z,2.73
2023-05-08T22:25:25.678Z,3.10
2023-05-08T22:27:53.936Z,3.10
2023-05-08T22:30:22.154Z,2.97
2023-05-08T22:32:56.007Z,3.37
2023-05-08T22:35:27.275Z,3.37
2023-05-08T22:37:57.219Z,3.60
2023-05-08T22:40:25.695Z,3.50
2023-05-08T22:42:55.802Z,3.50
2023-05-08T22:45:24.319Z,3.10
2023-05-08T22:47:52.529Z,3.07
2023-05-08T22:50:20.670Z,3.50
2023-05-08T22:52:50.013Z,3.30
2023-05-08T22:55:18.164Z,3.60
2023-05-08T22:57:46.190Z,3.40
2023-05-08T23:00:16.264Z,3.87
2023-05-08T23:02:44.394Z,3.53
2023-05-08T23:05:12.669Z,3.70
2023-05-08T23:07:40.974Z,3.60
2023-05-08T23:10:11.429Z,3.90
2023-05-08T23:12:39.444Z,3.80
2023-05-08T23:15:08.474Z,4.07
2023-05-08T23:17:36.559Z,3.90
2023-05-08T23:20:05.856Z,3.77
2023-05-08T23:22:33.870Z,4.20
2023-05-08T23:25:01.836Z,3.93
2023-05-08T23:27:31.203Z,4.00
2023-05-08T23:29:59.216Z,4.10
2023-05-08T23:32:27.287Z,4.43
2023-05-08T23:34:55.266Z,4.43
2023-05-08T23:37:23.223Z,3.97
2023-05-08T23:39:51.235Z,4.30
2023-05-08T23:42:20.377Z,4.50
2023-05-08T23:44:49.691Z,4.70
2023-05-08T23:47:19.226Z,4.40
2023-05-08T23:49:47.293Z,4.03
2023-05-08T23:52:15.462Z,4.00
2023-05-08T23:54:43.509Z,4.40
2023-05-08T23:57:11.446Z,4.27
2023-05-08T23:59:39.485Z,4.67
